Poland, NY (13431)

5:08 PM EST on December 08, 2016 (GMT -0500)
The Hurricane | | Change Station

Elev 1424 ft 43.26 °N, 74.98 °W | Updated 34 minutes ago

Overcast
Overcast
27.6 °F
Feels Like 17 °F
N
13.0
Wind Variable Wind from West
Gusts 22.0 mph

Today
High -- | Low -- °F
--% Chance of Precip.
Yesterday
High -- | Low -- °F
Precip. -- in
Pressure 29.91 in
Visibility 2.0 miles
Clouds Mostly Cloudy 3200 ft
Mostly Cloudy 4000 ft
Overcast 6000 ft
Windchill 17 °F
Dew Point 24 °F
Humidity 87%
Rainfall Not available.
Snow Depth Not available.
7:20 AM 4:24 PM
Waxing Gibbous, 67% visible
SPECI KRME 082203Z 27016G27KT 2SM -SN BR BKN032 BKN040 OVC060 M02/M03 A2991 RMK AO2 PK WND 26027/2158 P0000 T10171033
Pressure 29.91 in
Visibility 2.0 miles
Clouds Mostly Cloudy 3200 ft
Mostly Cloudy 4000 ft
Overcast 6000 ft
Windchill 17 °F
Dew Point 24 °F
Humidity 87%
Rainfall Not available.
Snow Depth Not available.
7:20 AM 4:24 PM
Waxing Gibbous, 67% visible
SPECI KRME 082203Z 27016G27KT 2SM -SN BR BKN032 BKN040 OVC060 M02/M03 A2991 RMK AO2 PK WND 26027/2158 P0000 T10171033

10-Day Weather Forecast

Almanac

Astronomy

Dec. 08, 2016 Rise Set
Actual Time
Civil Twilight
Nautical Twilight
Astronomical Twilight
Moon
Length of Visible Light
Length of Day
Tomorrow will be .
, % of the Moon is Illuminated

Today's Extremes

State Highs State Lows

Community

WunderPhotos

Upload Photos

1,956,277 photos uploaded!

WunderBlog® & News

Nearby

Air Quality

  Air Quality AQ Index Pollutant
Not available.

Snow Depth

Station Depth Elevation

Earthquake Activity

City Distance Mag. Time & Date
Minimum magnitude displayed is 2.5.

Coastal Water Temperatures

Place Temperature

Stations

Nearby Weather Stations

Station Location Temp. Windchill Dew Point Humidity Wind Precip. Elev Updated Type
                   

Watches & Warnings

There are currently no watches in effect.